Las Cabezas de San Juan, Spain
Current Conditions -  °F | °C
As of 11:00 AM on Wednesday 22 Oct 2014 (Local Time) from LEMO Reporting Station
Clear Clear  
Wind Chill: 75°   Ceiling: Unl
Heat Index: 75°   Visibility: 6mi
Dew Point: 54°   Wind: 3mph
Humidity: 47%   Direction: NA
Pressure: 30.27"   Gusts: NA
Location:  36.98°N, 5.94°W
Report Text: LEMO 220900Z VRB03KT CAVOK 24/12 Q1025 NOSIG
Loading
Personal Weather Stations






























Interactive Weather Map
Tropical Storm Tracking
New forecast layout! Learn more

10-Day Weather Forecast

Advertisements
Track Severe Weather on mobile